createdAt,value
2018-07-03T00:00:21.470Z,18.31
2018-07-03T00:01:22.200Z,18.28
2018-07-03T00:02:22.926Z,18.28
2018-07-03T00:03:23.638Z,18.22
2018-07-03T00:04:24.350Z,18.19
2018-07-03T00:05:25.076Z,18.25
2018-07-03T00:06:25.790Z,18.18
2018-07-03T00:07:26.513Z,18.19
2018-07-03T00:08:27.248Z,18.13
2018-07-03T00:09:27.971Z,18.11
2018-07-03T00:10:28.683Z,18.07
2018-07-03T00:11:29.396Z,18.08
2018-07-03T00:12:30.107Z,18.04
2018-07-03T00:13:30.831Z,18.08
2018-07-03T00:14:31.544Z,18.04
2018-07-03T00:15:32.257Z,18.05
2018-07-03T00:16:32.980Z,18.00
2018-07-03T00:17:33.692Z,18.03
2018-07-03T00:18:34.416Z,18.01
2018-07-03T00:19:35.129Z,18.01
2018-07-03T00:20:35.856Z,17.86
2018-07-03T00:21:36.582Z,17.83
2018-07-03T00:22:37.296Z,17.85
2018-07-03T00:23:38.007Z,17.85
2018-07-03T00:24:38.731Z,17.82
2018-07-03T00:25:39.442Z,17.85
2018-07-03T00:26:40.156Z,17.85
2018-07-03T00:27:40.871Z,17.83
2018-07-03T00:28:41.595Z,17.76
2018-07-03T00:29:42.308Z,17.85
2018-07-03T00:30:43.022Z,17.80
2018-07-03T00:31:43.735Z,17.70
2018-07-03T00:32:44.459Z,17.78
2018-07-03T00:33:45.174Z,17.76
2018-07-03T00:34:45.898Z,17.79
2018-07-03T00:35:46.613Z,17.78
2018-07-03T00:36:47.328Z,17.79
2018-07-03T00:37:48.043Z,17.78
2018-07-03T00:38:48.757Z,17.70
2018-07-03T00:39:49.473Z,17.65
2018-07-03T00:40:50.186Z,17.68
2018-07-03T00:41:50.900Z,17.64
2018-07-03T00:42:51.614Z,17.63
2018-07-03T00:43:52.328Z,17.59
2018-07-03T00:44:53.054Z,17.48
2018-07-03T00:45:53.766Z,17.42
2018-07-03T00:46:54.478Z,17.42
2018-07-03T00:47:55.205Z,17.45
2018-07-03T00:48:55.918Z,17.38
2018-07-03T00:49:56.630Z,17.42
2018-07-03T00:50:57.342Z,17.38
2018-07-03T00:51:58.055Z,17.36
2018-07-03T00:52:58.768Z,17.46
2018-07-03T00:53:59.482Z,17.41
2018-07-03T00:55:00.195Z,17.38
2018-07-03T00:56:00.908Z,17.38
2018-07-03T00:57:01.633Z,17.41
2018-07-03T00:58:02.358Z,17.20
2018-07-03T00:59:03.073Z,17.29
2018-07-03T01:00:03.787Z,17.20
2018-07-03T01:01:04.502Z,17.22
2018-07-03T01:02:05.222Z,17.24
2018-07-03T01:03:05.943Z,17.16
2018-07-03T01:04:06.669Z,17.14
2018-07-03T01:05:07.383Z,17.11
2018-07-03T01:06:08.095Z,17.19
2018-07-03T01:07:08.808Z,17.06
2018-07-03T01:08:09.532Z,17.19
2018-07-03T01:09:10.244Z,17.06
2018-07-03T01:10:10.957Z,17.02
2018-07-03T01:11:11.669Z,17.04
2018-07-03T01:12:12.381Z,17.09
2018-07-03T01:13:13.094Z,17.06
2018-07-03T01:14:13.807Z,17.01
2018-07-03T01:15:14.532Z,16.99
2018-07-03T01:16:15.244Z,16.99
2018-07-03T01:17:15.958Z,16.97
2018-07-03T01:18:16.671Z,16.93
2018-07-03T01:19:17.382Z,17.02
2018-07-03T01:20:18.095Z,17.02
2018-07-03T01:21:18.808Z,16.94
2018-07-03T01:22:19.520Z,16.96
2018-07-03T01:23:20.235Z,17.02
2018-07-03T01:24:20.962Z,16.97
2018-07-03T01:25:21.673Z,16.89
2018-07-03T01:26:22.385Z,16.90
2018-07-03T01:27:23.097Z,16.91
2018-07-03T01:28:23.826Z,16.83
2018-07-03T01:29:24.552Z,16.79
2018-07-03T01:30:25.259Z,16.76
2018-07-03T01:31:25.972Z,16.78
2018-07-03T01:32:26.694Z,16.89
2018-07-03T01:33:27.408Z,16.83
2018-07-03T01:34:28.120Z,16.76
2018-07-03T01:35:28.844Z,16.74
2018-07-03T01:36:29.554Z,16.76
2018-07-03T01:37:30.266Z,16.74
2018-07-03T01:38:30.982Z,16.71
2018-07-03T01:39:31.704Z,16.69
2018-07-03T01:40:32.429Z,16.72
2018-07-03T01:41:33.141Z,16.64
2018-07-03T01:42:33.856Z,16.61
2018-07-03T01:43:34.585Z,16.64
2018-07-03T01:44:35.308Z,16.64
2018-07-03T01:45:36.020Z,16.58
2018-07-03T01:46:36.735Z,16.64
2018-07-03T01:47:37.443Z,16.68
2018-07-03T01:48:38.157Z,16.58
2018-07-03T01:49:38.882Z,16.61
2018-07-03T01:50:39.594Z,16.64
2018-07-03T01:51:40.305Z,16.65
2018-07-03T01:52:41.018Z,16.57
2018-07-03T01:53:41.729Z,16.53
2018-07-03T01:54:42.442Z,16.51
2018-07-03T01:55:43.165Z,16.50
2018-07-03T01:56:43.875Z,16.53
2018-07-03T01:57:44.600Z,16.51
2018-07-03T01:58:45.313Z,16.54
2018-07-03T01:59:46.027Z,16.57
2018-07-03T02:00:46.751Z,16.54
2018-07-03T02:01:47.478Z,16.56
2018-07-03T02:02:48.188Z,16.53
2018-07-03T02:03:48.901Z,16.39
2018-07-03T02:04:49.625Z,16.43
2018-07-03T02:05:50.352Z,16.49
2018-07-03T02:06:51.064Z,16.41
2018-07-03T02:07:51.777Z,16.42
2018-07-03T02:08:52.501Z,16.39
2018-07-03T02:09:53.214Z,16.32
2018-07-03T02:10:53.938Z,16.29
2018-07-03T02:11:54.650Z,16.32
2018-07-03T02:12:55.365Z,16.29
2018-07-03T02:13:56.075Z,16.28
2018-07-03T02:14:56.789Z,16.15
2018-07-03T02:15:57.498Z,16.13
2018-07-03T02:16:58.213Z,16.21
2018-07-03T02:17:58.932Z,16.13
2018-07-03T02:18:59.645Z,16.12
2018-07-03T02:20:00.358Z,16.10
2018-07-03T02:21:01.072Z,16.09
2018-07-03T02:22:01.784Z,16.02
2018-07-03T02:23:02.501Z,16.10
2018-07-03T02:24:03.223Z,16.10
2018-07-03T02:25:03.949Z,16.02
2018-07-03T02:26:04.666Z,15.97
2018-07-03T02:27:05.388Z,16.01
2018-07-03T02:28:06.112Z,15.98
2018-07-03T02:29:06.823Z,16.01
2018-07-03T02:30:07.538Z,15.95
2018-07-03T02:31:08.250Z,15.97
2018-07-03T02:32:08.974Z,16.04
2018-07-03T02:33:09.687Z,16.01
2018-07-03T02:34:10.399Z,16.00
2018-07-03T02:35:11.110Z,16.01
2018-07-03T02:36:11.822Z,15.98
2018-07-03T02:37:12.537Z,16.00
2018-07-03T02:38:13.260Z,16.01
2018-07-03T02:39:14.053Z,15.98
2018-07-03T02:40:14.694Z,15.95
2018-07-03T02:41:15.418Z,15.95
2018-07-03T02:42:16.141Z,16.00
2018-07-03T02:43:16.860Z,15.98
2018-07-03T02:44:17.576Z,15.94
2018-07-03T02:45:18.287Z,15.92
2018-07-03T02:46:19.013Z,15.88
2018-07-03T02:47:19.739Z,15.82
2018-07-03T02:48:20.449Z,15.86
2018-07-03T02:49:21.160Z,15.90
2018-07-03T02:50:21.873Z,15.83
2018-07-03T02:51:22.590Z,15.86
2018-07-03T02:52:23.311Z,15.88
2018-07-03T02:53:24.025Z,15.82
2018-07-03T02:54:24.736Z,15.84
2018-07-03T02:55:25.458Z,15.83
2018-07-03T02:56:26.172Z,15.80
2018-07-03T02:57:26.900Z,15.88
2018-07-03T02:58:27.613Z,15.83
2018-07-03T02:59:28.329Z,15.86
2018-07-03T03:00:29.041Z,15.76
2018-07-03T03:01:29.755Z,15.76
2018-07-03T03:02:30.470Z,15.80
2018-07-03T03:03:31.184Z,15.79
2018-07-03T03:04:31.899Z,15.72
2018-07-03T03:05:32.612Z,15.72
2018-07-03T03:06:33.325Z,15.73
2018-07-03T03:07:34.037Z,15.70
2018-07-03T03:08:34.762Z,15.64
2018-07-03T03:09:35.476Z,15.64
2018-07-03T03:10:36.186Z,15.62
2018-07-03T03:11:36.900Z,15.64
2018-07-03T03:12:37.612Z,15.67
2018-07-03T03:13:38.339Z,15.64
2018-07-03T03:14:39.040Z,15.70
2018-07-03T03:15:39.778Z,15.59
2018-07-03T03:16:40.481Z,15.70
2018-07-03T03:17:41.194Z,15.57
2018-07-03T03:18:41.907Z,15.64
2018-07-03T03:19:42.621Z,15.55
2018-07-03T03:20:43.338Z,15.54
2018-07-03T03:21:44.064Z,15.58
2018-07-03T03:22:44.775Z,15.55
2018-07-03T03:23:45.489Z,15.51
2018-07-03T03:24:46.204Z,15.44
2018-07-03T03:25:46.920Z,15.46
2018-07-03T03:26:47.640Z,15.49
2018-07-03T03:27:48.381Z,15.46
2018-07-03T03:28:49.098Z,15.51
2018-07-03T03:29:49.814Z,15.44
2018-07-03T03:30:50.540Z,15.46
2018-07-03T03:31:51.267Z,15.46
2018-07-03T03:32:51.982Z,15.42
2018-07-03T03:33:52.712Z,15.40
2018-07-03T03:34:53.437Z,15.43
2018-07-03T03:35:54.154Z,15.49
2018-07-03T03:36:54.867Z,15.44
2018-07-03T03:37:55.584Z,15.44
2018-07-03T03:38:56.297Z,15.39
2018-07-03T03:39:57.011Z,15.42
2018-07-03T03:40:57.728Z,15.37
2018-07-03T03:41:58.443Z,15.40
2018-07-03T03:42:59.158Z,15.44
2018-07-03T03:43:59.887Z,15.42
2018-07-03T03:45:00.599Z,15.37
2018-07-03T03:46:01.314Z,15.42
2018-07-03T03:47:02.029Z,15.36
2018-07-03T03:48:02.744Z,15.49
2018-07-03T03:49:03.457Z,15.39
2018-07-03T03:50:04.172Z,15.44
2018-07-03T03:51:04.888Z,15.49
2018-07-03T03:52:05.616Z,15.43
2018-07-03T03:53:06.332Z,15.44
2018-07-03T03:54:07.048Z,15.52
2018-07-03T03:55:07.765Z,15.39
2018-07-03T03:56:08.480Z,15.35
2018-07-03T03:57:09.207Z,15.44
2018-07-03T03:58:09.937Z,15.39
2018-07-03T03:59:10.663Z,15.42
2018-07-03T04:00:11.392Z,15.40
2018-07-03T04:01:12.108Z,15.47
2018-07-03T04:02:12.854Z,15.52
2018-07-03T04:03:13.538Z,15.47
2018-07-03T04:04:14.252Z,15.47
2018-07-03T04:05:14.980Z,15.43
2018-07-03T04:06:15.697Z,15.54
2018-07-03T04:07:16.413Z,15.49
2018-07-03T04:08:17.130Z,15.46
2018-07-03T04:09:17.842Z,15.46
2018-07-03T04:10:18.557Z,15.47
2018-07-03T04:11:19.272Z,15.62
2018-07-03T04:12:19.988Z,15.58
2018-07-03T04:13:20.713Z,15.58
2018-07-03T04:14:21.445Z,15.55
2018-07-03T04:15:22.161Z,15.67
2018-07-03T04:17:15.530Z,15.65
2018-07-03T04:18:16.248Z,15.70
2018-07-03T04:20:54.256Z,15.79
2018-07-03T04:22:39.474Z,15.82
2018-07-03T04:23:40.202Z,15.86
2018-07-03T04:24:40.919Z,15.82
2018-07-03T04:25:41.637Z,15.82
2018-07-03T04:26:42.355Z,15.80
2018-07-03T04:27:43.073Z,15.94
2018-07-03T04:28:43.791Z,15.94
2018-07-03T04:29:44.508Z,16.00
2018-07-03T04:30:45.223Z,15.97
2018-07-03T04:31:45.939Z,15.97
2018-07-03T04:32:46.668Z,15.97
2018-07-03T04:33:47.387Z,15.98
2018-07-03T04:34:48.105Z,15.98
2018-07-03T04:35:48.823Z,16.04
2018-07-03T04:36:49.540Z,16.13
2018-07-03T04:37:50.256Z,16.10
2018-07-03T04:38:50.983Z,16.10
2018-07-03T04:39:51.701Z,16.08
2018-07-03T04:40:52.419Z,16.10
2018-07-03T04:41:53.136Z,16.28
2018-07-03T04:42:53.868Z,16.21
2018-07-03T04:43:54.587Z,16.29
2018-07-03T04:44:55.315Z,16.26
2018-07-03T04:45:56.031Z,16.31
2018-07-03T04:46:56.815Z,16.28
2018-07-03T04:48:45.872Z,16.38
2018-07-03T08:49:00.372Z,30.02
2018-07-03T08:50:01.115Z,29.36
2018-07-03T08:51:01.855Z,29.41
2018-07-03T08:52:02.639Z,29.65
2018-07-03T08:53:03.339Z,29.88
2018-07-03T08:54:04.094Z,30.09
2018-07-03T08:55:04.861Z,29.59
2018-07-03T08:56:05.590Z,28.93
2018-07-03T08:57:06.346Z,28.22
2018-07-03T08:58:07.087Z,28.66
2018-07-03T08:59:07.826Z,28.72
2018-07-03T09:00:08.569Z,29.19
2018-07-03T09:01:09.311Z,29.59
2018-07-03T09:02:10.051Z,29.61
2018-07-03T09:03:10.806Z,29.69
2018-07-03T09:04:11.547Z,29.86
2018-07-03T09:05:12.287Z,30.13
2018-07-03T09:06:13.030Z,29.42
2018-07-03T09:07:13.774Z,29.76
2018-07-03T09:08:14.516Z,29.63
2018-07-03T09:09:15.256Z,30.09
2018-07-03T09:10:15.997Z,30.15
2018-07-03T09:11:16.737Z,29.90
2018-07-03T09:12:17.477Z,29.95
2018-07-03T09:13:18.217Z,30.27
2018-07-03T09:14:18.958Z,30.27
2018-07-03T09:15:19.712Z,30.03
2018-07-03T09:16:20.455Z,30.30
2018-07-03T09:17:21.195Z,30.51
2018-07-03T09:18:21.942Z,30.50
2018-07-03T09:19:22.676Z,30.91
2018-07-03T09:20:23.414Z,31.31
2018-07-03T09:21:24.154Z,31.59
2018-07-03T09:22:24.910Z,31.69
2018-07-03T09:23:25.653Z,31.80
2018-07-03T09:25:11.049Z,32.08
2018-07-03T09:28:18.293Z,31.96
2018-07-03T09:30:11.706Z,31.40
2018-07-03T09:31:57.101Z,30.94
2018-07-03T09:32:57.842Z,30.34
2018-07-03T09:33:58.594Z,30.34
2018-07-03T09:39:10.823Z,30.40
2018-07-03T09:40:11.563Z,30.53
2018-07-03T09:41:12.301Z,29.84
2018-07-03T09:42:13.043Z,30.15
2018-07-03T09:43:13.782Z,30.12
2018-07-03T09:44:14.523Z,30.39
2018-07-03T09:45:15.474Z,30.57
2018-07-03T09:46:16.221Z,30.50
2018-07-03T09:47:16.969Z,31.00
2018-07-03T09:48:17.724Z,31.58
2018-07-03T09:50:34.090Z,32.22
2018-07-03T09:52:20.496Z,32.14
2018-07-03T09:53:21.249Z,32.75
2018-07-03T09:54:22.000Z,32.92
2018-07-03T09:58:02.994Z,33.02
2018-07-03T09:59:03.737Z,33.00
2018-07-03T10:02:45.932Z,33.42
2018-07-03T10:03:46.671Z,33.20
2018-07-03T10:04:47.410Z,33.64
2018-07-03T10:05:48.148Z,32.58
2018-07-03T10:06:48.902Z,32.36
2018-07-03T10:07:49.653Z,31.99
2018-07-03T10:08:50.390Z,30.99
2018-07-03T10:09:51.128Z,31.06
2018-07-03T10:10:51.867Z,31.42
2018-07-03T10:11:52.603Z,31.84
2018-07-03T10:12:53.399Z,32.34
2018-07-03T10:13:54.091Z,32.51
2018-07-03T10:14:54.840Z,32.80
2018-07-03T10:15:55.581Z,32.89
2018-07-03T10:16:56.320Z,32.86
2018-07-03T10:17:57.058Z,31.89
2018-07-03T10:18:57.809Z,32.48
2018-07-03T10:19:58.542Z,33.08
2018-07-03T10:20:59.283Z,33.27
2018-07-03T10:22:00.035Z,33.02
2018-07-03T10:23:00.770Z,32.52
2018-07-03T10:25:03.238Z,33.12
2018-07-03T10:26:03.976Z,33.55
2018-07-03T10:28:50.054Z,34.74
2018-07-03T10:29:50.793Z,34.86
2018-07-03T10:30:51.530Z,34.95
2018-07-03T10:31:52.271Z,34.86
2018-07-03T10:32:53.024Z,35.07
2018-07-03T10:33:53.762Z,35.45
2018-07-03T10:34:54.514Z,35.78
2018-07-03T10:35:55.254Z,35.83
2018-07-03T10:36:55.994Z,35.74
2018-07-03T10:37:56.735Z,35.97
2018-07-03T10:38:57.489Z,35.89
2018-07-03T10:39:58.227Z,35.41
2018-07-03T10:40:59.013Z,35.82
2018-07-03T10:41:59.706Z,35.61
2018-07-03T10:43:00.449Z,35.26
2018-07-03T10:44:01.188Z,35.49
2018-07-03T10:45:01.927Z,35.88
2018-07-03T10:46:02.665Z,36.09
2018-07-03T10:47:03.405Z,36.02
2018-07-03T10:48:04.144Z,34.81
2018-07-03T10:49:04.897Z,34.21
2018-07-03T10:50:05.636Z,34.51
2018-07-03T10:51:06.376Z,34.45
2018-07-03T10:52:07.116Z,34.71
2018-07-03T10:53:07.866Z,35.10
2018-07-03T10:54:08.643Z,35.23
2018-07-03T10:55:09.370Z,35.17
2018-07-03T10:56:10.114Z,35.18
2018-07-03T10:57:10.855Z,34.96
2018-07-03T10:58:11.594Z,35.23
2018-07-03T10:59:12.336Z,35.18
2018-07-03T11:00:13.075Z,34.71
2018-07-03T11:01:13.814Z,34.48
2018-07-03T11:02:14.554Z,34.81
2018-07-03T11:03:15.294Z,35.11
2018-07-03T11:04:16.046Z,35.29
2018-07-03T11:05:16.788Z,35.49
2018-07-03T11:06:17.528Z,35.46
2018-07-03T11:07:18.268Z,35.18
2018-07-03T11:08:19.008Z,35.52
2018-07-03T11:09:19.749Z,35.82
2018-07-03T11:10:20.493Z,36.21
2018-07-03T11:11:21.228Z,36.21
2018-07-03T11:12:21.982Z,36.24
2018-07-03T11:13:22.731Z,36.02
2018-07-03T11:14:23.471Z,36.18
2018-07-03T11:15:24.224Z,36.24
2018-07-03T11:16:24.964Z,34.74
2018-07-03T11:17:25.706Z,33.32
2018-07-03T11:18:26.462Z,33.99
2018-07-03T11:19:27.216Z,33.98
2018-07-03T11:20:27.972Z,33.99
2018-07-03T11:21:28.712Z,33.42
2018-07-03T11:22:29.458Z,32.92
2018-07-03T11:23:30.192Z,32.48
2018-07-03T11:24:30.931Z,32.80
2018-07-03T11:25:31.673Z,32.78
2018-07-03T11:26:32.423Z,32.27
2018-07-03T11:27:33.153Z,32.33
2018-07-03T11:28:33.906Z,32.59
2018-07-03T11:29:34.646Z,32.63
2018-07-03T11:30:35.391Z,33.02
2018-07-03T11:31:36.138Z,32.60
2018-07-03T11:32:36.878Z,32.82
2018-07-03T11:33:37.626Z,33.49
2018-07-03T11:34:38.369Z,33.87
2018-07-03T11:35:39.111Z,34.27
2018-07-03T11:36:39.851Z,34.60
2018-07-03T11:37:40.594Z,35.08
2018-07-03T11:38:41.330Z,35.18
2018-07-03T11:39:42.084Z,35.18
2018-07-03T11:40:42.826Z,33.92
2018-07-03T11:41:43.565Z,33.76
2018-07-03T11:42:44.305Z,33.08
2018-07-03T11:43:45.043Z,33.17
2018-07-03T11:44:45.785Z,32.95
2018-07-03T11:45:46.533Z,33.11
2018-07-03T11:46:47.273Z,32.26
2018-07-03T11:47:48.025Z,32.59
2018-07-03T11:48:48.763Z,32.93
2018-07-03T11:49:49.506Z,33.24
2018-07-03T11:50:50.251Z,32.87
2018-07-03T11:51:50.983Z,32.93
2018-07-03T11:52:51.720Z,33.55
2018-07-03T11:53:52.474Z,33.53
2018-07-03T11:54:53.213Z,34.02
2018-07-03T11:55:53.952Z,33.62
2018-07-03T11:56:54.690Z,33.89
2018-07-03T11:57:55.431Z,33.94
2018-07-03T11:58:56.188Z,34.20
2018-07-03T11:59:56.933Z,33.89
2018-07-03T12:00:57.685Z,34.13
2018-07-03T12:01:58.424Z,34.58
2018-07-03T12:02:59.165Z,35.05
2018-07-03T12:03:59.903Z,35.49
2018-07-03T12:05:00.642Z,35.42
2018-07-03T12:06:01.382Z,34.75
2018-07-03T12:07:02.120Z,35.19
2018-07-03T12:08:02.873Z,35.15
2018-07-03T12:09:03.624Z,35.29
2018-07-03T12:10:04.363Z,35.53
2018-07-03T12:11:05.116Z,35.78
2018-07-03T12:12:05.855Z,35.82
2018-07-03T12:13:06.595Z,35.79
2018-07-03T12:14:07.348Z,36.07
2018-07-03T12:15:08.087Z,36.33
2018-07-03T12:16:08.825Z,36.51
2018-07-03T12:17:09.577Z,36.91
2018-07-03T12:18:10.318Z,37.03
2018-07-03T12:19:11.059Z,37.15
2018-07-03T12:20:11.796Z,37.33
2018-07-03T12:21:12.533Z,37.67
2018-07-03T12:22:13.274Z,37.96
2018-07-03T12:23:14.028Z,38.26
2018-07-03T12:24:14.768Z,38.11
2018-07-03T12:25:15.508Z,38.19
2018-07-03T12:26:16.249Z,38.06
2018-07-03T12:27:16.988Z,38.31
2018-07-03T12:28:17.728Z,38.38
2018-07-03T12:29:18.468Z,38.45
2018-07-03T12:30:19.209Z,38.26
2018-07-03T12:31:19.946Z,38.30
2018-07-03T12:32:20.686Z,38.27
2018-07-03T12:33:21.428Z,38.39
2018-07-03T12:34:22.167Z,38.20
2018-07-03T12:35:22.906Z,37.65
2018-07-03T12:36:23.648Z,37.01
2018-07-03T12:37:24.389Z,36.93
2018-07-03T12:38:25.127Z,37.15
2018-07-03T12:39:25.871Z,37.45
2018-07-03T12:40:26.624Z,37.65
2018-07-03T12:41:27.374Z,37.77
2018-07-03T12:42:28.126Z,37.84
2018-07-03T12:43:28.866Z,38.12
2018-07-03T12:44:29.605Z,38.23
2018-07-03T12:45:30.344Z,38.54
2018-07-03T12:46:31.084Z,38.62
2018-07-03T12:47:31.828Z,38.69
2018-07-03T12:48:32.579Z,37.89
2018-07-03T12:49:33.320Z,37.29
2018-07-03T12:50:34.058Z,37.58
2018-07-03T12:51:34.799Z,37.89
2018-07-03T12:52:35.539Z,37.55
2018-07-03T12:53:36.280Z,37.97
2018-07-03T12:54:37.022Z,38.23
2018-07-03T12:55:37.760Z,38.39
2018-07-03T12:56:38.500Z,38.60
2018-07-03T12:57:39.251Z,38.28
2018-07-03T12:58:40.014Z,37.58
2018-07-03T12:59:40.741Z,37.36
2018-07-03T13:00:41.492Z,37.56
2018-07-03T13:01:42.234Z,37.40
2018-07-03T13:02:42.975Z,37.55
2018-07-03T13:03:43.714Z,37.60
2018-07-03T13:04:44.453Z,37.35
2018-07-03T13:05:45.192Z,37.47
2018-07-03T13:06:45.947Z,37.67
2018-07-03T13:07:46.686Z,37.71
2018-07-03T13:08:47.426Z,37.63
2018-07-03T13:09:48.166Z,36.79
2018-07-03T13:10:48.906Z,36.09
2018-07-03T13:11:49.643Z,36.12
2018-07-03T13:12:50.396Z,36.35
2018-07-03T13:13:51.135Z,36.28
2018-07-03T13:14:51.874Z,35.89
2018-07-03T13:15:52.670Z,35.86
2018-07-03T13:16:53.352Z,35.73
2018-07-03T13:17:54.093Z,35.88
2018-07-03T13:18:54.831Z,36.47
2018-07-03T13:19:55.583Z,36.18
2018-07-03T13:20:56.322Z,35.36
2018-07-03T13:21:57.064Z,35.80
2018-07-03T13:22:57.812Z,35.15
2018-07-03T13:23:58.565Z,35.15
2018-07-03T13:24:59.302Z,35.10
2018-07-03T13:26:00.041Z,34.95
2018-07-03T13:27:00.778Z,34.95
2018-07-03T13:28:01.528Z,35.22
2018-07-03T13:29:02.268Z,35.53
2018-07-03T13:30:03.079Z,35.95
2018-07-03T13:31:03.768Z,36.21
2018-07-03T13:32:04.512Z,36.55
2018-07-03T13:33:05.250Z,36.81
2018-07-03T13:34:05.988Z,36.88
2018-07-03T13:35:06.728Z,36.98
2018-07-03T13:36:07.468Z,37.26
2018-07-03T13:37:08.213Z,37.59
2018-07-03T13:38:08.944Z,37.89
2018-07-03T13:39:09.684Z,37.94
2018-07-03T13:40:10.423Z,37.64
2018-07-03T13:41:11.162Z,37.25
2018-07-03T13:42:11.944Z,37.44
2018-07-03T13:43:12.640Z,37.64
2018-07-03T13:44:13.379Z,37.75
2018-07-03T13:45:14.121Z,37.71
2018-07-03T13:46:14.858Z,37.68
2018-07-03T13:47:15.595Z,37.84
2018-07-03T13:48:16.372Z,38.05
2018-07-03T13:49:17.088Z,37.93
2018-07-03T13:50:17.824Z,38.11
2018-07-03T13:51:18.563Z,38.11
2018-07-03T13:52:19.302Z,38.24
2018-07-03T13:53:20.039Z,38.50
2018-07-03T13:54:20.777Z,38.84
2018-07-03T13:55:21.515Z,38.67
2018-07-03T13:56:22.256Z,38.97
2018-07-03T13:57:22.997Z,38.97
2018-07-03T13:58:23.733Z,39.11
2018-07-03T13:59:24.472Z,39.29
2018-07-03T14:00:25.212Z,39.46
2018-07-03T14:01:25.946Z,38.96
2018-07-03T14:02:26.695Z,38.52
2018-07-03T14:03:27.432Z,37.80
2018-07-03T14:04:28.168Z,37.75
2018-07-03T14:05:28.907Z,37.33
2018-07-03T14:06:29.660Z,37.42
2018-07-03T14:07:30.399Z,37.56
2018-07-03T14:08:31.137Z,37.45
2018-07-03T14:09:31.876Z,37.51
2018-07-03T14:10:32.616Z,37.48
2018-07-03T14:11:33.355Z,37.74
2018-07-03T14:12:34.107Z,38.04
2018-07-03T14:13:34.845Z,38.31
2018-07-03T14:14:35.581Z,38.58
2018-07-03T14:15:36.318Z,38.77
2018-07-03T14:16:37.070Z,38.87
2018-07-03T14:17:37.818Z,39.00
2018-07-03T14:18:38.554Z,39.30
2018-07-03T14:19:39.307Z,39.15
2018-07-03T14:20:40.045Z,39.09
2018-07-03T14:21:40.788Z,39.09
2018-07-03T14:22:41.518Z,39.09
2018-07-03T14:23:42.255Z,39.41
2018-07-03T14:24:42.993Z,39.49
2018-07-03T14:25:43.732Z,39.53
2018-07-03T14:26:44.470Z,39.37
2018-07-03T14:27:45.205Z,39.26
2018-07-03T14:28:45.939Z,39.18
2018-07-03T14:29:46.689Z,38.97
2018-07-03T14:30:47.424Z,38.89
2018-07-03T14:31:48.175Z,38.60
2018-07-03T14:32:48.912Z,38.74
2018-07-03T14:33:49.647Z,38.73
2018-07-03T14:34:50.384Z,38.95
2018-07-03T14:35:51.120Z,38.65
2018-07-03T14:36:51.870Z,38.64
2018-07-03T14:37:52.607Z,38.91
2018-07-03T14:38:53.341Z,39.29
2018-07-03T14:39:54.083Z,39.44
2018-07-03T14:40:54.816Z,39.31
2018-07-03T14:41:55.553Z,39.34
2018-07-03T14:42:56.291Z,39.36
2018-07-03T14:43:57.044Z,39.51
2018-07-03T14:44:57.793Z,39.51
2018-07-03T14:45:58.540Z,39.17
2018-07-03T14:46:59.277Z,39.24
2018-07-03T14:48:00.014Z,39.31
2018-07-03T14:49:00.758Z,39.06
2018-07-03T14:50:01.506Z,39.04
2018-07-03T14:51:02.250Z,38.74
2018-07-03T14:52:02.988Z,38.76
2018-07-03T14:53:03.723Z,38.49
2018-07-03T14:54:04.475Z,38.24
2018-07-03T14:55:05.211Z,38.19
2018-07-03T14:56:05.961Z,38.09
2018-07-03T14:57:06.698Z,38.23
2018-07-03T14:58:07.439Z,37.96
2018-07-03T14:59:08.174Z,37.96
2018-07-03T15:03:13.213Z,36.99
2018-07-03T15:04:13.963Z,36.99
2018-07-03T15:06:16.429Z,36.51
2018-07-03T15:07:17.178Z,36.21
2018-07-03T15:08:17.913Z,35.83
2018-07-03T15:09:18.647Z,35.82
2018-07-03T15:10:19.388Z,35.63
2018-07-03T15:11:20.134Z,35.42
2018-07-03T15:12:20.871Z,35.33
2018-07-03T15:13:21.609Z,35.24
2018-07-03T15:14:22.348Z,35.12
2018-07-03T15:15:23.086Z,35.12
2018-07-03T15:16:23.820Z,35.11
2018-07-03T15:17:24.558Z,34.95
2018-07-03T15:18:25.291Z,34.93
2018-07-03T15:19:26.027Z,34.89
2018-07-03T15:20:26.809Z,34.67
2018-07-03T15:21:27.502Z,34.58
2018-07-03T15:22:28.236Z,34.51
2018-07-03T15:23:28.989Z,34.33
2018-07-03T15:24:30.542Z,34.32
2018-07-03T15:25:31.280Z,34.35
2018-07-03T15:26:32.013Z,34.47
2018-07-03T15:27:32.748Z,34.38
2018-07-03T15:28:33.485Z,34.32
2018-07-03T15:29:34.220Z,34.16
2018-07-03T15:30:34.955Z,33.86
2018-07-03T15:31:35.692Z,33.74
2018-07-03T15:32:36.426Z,33.71
2018-07-03T15:33:37.166Z,33.50
2018-07-03T15:34:37.899Z,33.55
2018-07-03T15:35:38.637Z,33.55
2018-07-03T15:36:39.374Z,33.49
2018-07-03T15:37:40.111Z,33.32
2018-07-03T15:38:40.850Z,33.42
2018-07-03T15:39:41.590Z,33.53
2018-07-03T15:40:42.329Z,33.39
2018-07-03T15:41:43.066Z,33.39
2018-07-03T15:42:43.804Z,33.28
2018-07-03T15:43:44.541Z,33.05
2018-07-03T15:44:45.280Z,33.15
2018-07-03T15:45:46.014Z,33.05
2018-07-03T15:46:46.751Z,33.00
2018-07-03T15:47:47.491Z,32.96
2018-07-03T15:48:48.222Z,32.87
2018-07-03T15:49:48.954Z,32.78
2018-07-03T15:50:49.682Z,32.75
2018-07-03T15:51:50.414Z,32.56
2018-07-03T15:52:51.144Z,32.63
2018-07-03T15:53:51.872Z,32.60
2018-07-03T15:54:52.619Z,32.46
2018-07-03T15:55:53.340Z,32.26
2018-07-03T15:56:54.068Z,32.33
2018-07-03T15:57:54.796Z,32.23
2018-07-03T15:58:55.523Z,32.21
2018-07-03T15:59:56.251Z,32.16
2018-07-03T16:00:56.977Z,32.18
2018-07-03T16:01:57.703Z,32.27
2018-07-03T16:02:58.442Z,32.21
2018-07-03T16:03:59.170Z,32.30
2018-07-03T16:04:59.896Z,32.23
2018-07-03T16:06:00.623Z,32.18
2018-07-03T16:07:45.798Z,32.12
2018-07-03T16:08:46.524Z,32.04
2018-07-03T16:09:47.252Z,32.00
2018-07-03T16:10:47.991Z,31.94
2018-07-03T16:12:37.388Z,31.96
2018-07-03T16:13:38.120Z,31.89
2018-07-03T16:14:38.849Z,31.80
2018-07-03T16:15:39.578Z,31.96
2018-07-03T16:16:40.307Z,31.97
2018-07-03T16:17:41.034Z,31.97
2018-07-03T16:18:41.759Z,31.87
2018-07-03T16:19:42.484Z,31.94
2018-07-03T16:20:43.224Z,31.99
2018-07-03T16:21:43.951Z,31.85
2018-07-03T16:24:00.481Z,31.94
2018-07-03T16:25:01.247Z,31.87
2018-07-03T16:26:01.937Z,31.87
2018-07-03T16:27:02.676Z,31.85
2018-07-03T16:28:03.406Z,31.65
2018-07-03T16:29:04.145Z,31.66
2018-07-03T16:30:04.870Z,31.81
2018-07-03T16:31:49.291Z,31.76
2018-07-03T16:32:50.057Z,31.73
2018-07-03T16:33:51.365Z,31.70
2018-07-03T16:35:37.890Z,31.47
2018-07-03T16:36:38.620Z,31.51
2018-07-03T16:37:39.345Z,31.59
2018-07-03T16:38:40.108Z,31.49
2018-07-03T16:39:40.795Z,31.43
2018-07-03T16:40:41.524Z,31.42
2018-07-03T16:41:42.251Z,31.44
2018-07-03T16:42:42.978Z,31.54
2018-07-03T16:43:43.718Z,31.61
2018-07-03T16:44:44.444Z,31.58
2018-07-03T16:45:45.174Z,31.46
2018-07-03T16:46:45.915Z,31.34
2018-07-03T16:47:46.644Z,31.33
2018-07-03T16:48:47.375Z,31.20
2018-07-03T16:49:48.100Z,31.18
2018-07-03T16:50:48.843Z,31.21
2018-07-03T16:51:49.570Z,31.20
2018-07-03T16:52:50.334Z,31.25
2018-07-03T16:53:51.034Z,31.17
2018-07-03T16:54:51.761Z,31.14
2018-07-03T16:55:52.487Z,31.24
2018-07-03T16:56:53.215Z,31.22
2018-07-03T16:57:53.941Z,31.27
2018-07-03T16:58:54.668Z,31.22
2018-07-03T16:59:55.405Z,31.24
2018-07-03T17:00:56.131Z,31.12
2018-07-03T17:01:56.859Z,31.02
2018-07-03T17:02:57.590Z,30.88
2018-07-03T17:03:58.325Z,30.94
2018-07-03T17:04:59.066Z,30.84
2018-07-03T17:05:59.792Z,30.78
2018-07-03T17:07:00.543Z,30.83
2018-07-03T17:08:01.252Z,30.81
2018-07-03T17:11:31.168Z,30.90
2018-07-03T17:12:31.905Z,30.83
2018-07-03T17:13:32.639Z,30.81
2018-07-03T17:14:33.355Z,30.77
2018-07-03T17:15:34.080Z,30.68
2018-07-03T17:16:34.804Z,30.61
2018-07-03T17:17:35.527Z,30.65
2018-07-03T17:18:36.252Z,30.70
2018-07-03T17:19:36.991Z,30.65
2018-07-03T17:20:37.747Z,30.66
2018-07-03T17:21:38.421Z,30.57
2018-07-03T17:22:39.143Z,30.57
2018-07-03T17:23:39.867Z,30.43
2018-07-03T17:24:40.591Z,30.57
2018-07-03T17:25:41.317Z,30.50
2018-07-03T17:26:42.041Z,30.37
2018-07-03T17:27:42.763Z,30.32
2018-07-03T17:28:43.486Z,30.23
2018-07-03T17:29:44.211Z,30.23
2018-07-03T17:30:44.936Z,30.19
2018-07-03T17:31:45.659Z,30.32
2018-07-03T17:32:46.381Z,30.31
2018-07-03T17:33:47.196Z,30.24
2018-07-03T17:34:47.841Z,30.23